Time;durP1;ratioP1;P1;durP2;ratioP2;P2;SDS_P1;SDS_P2;PMS_P1;PMS_P2;Temp;Humidity;BMP_temperature;BMP_pressure;BME280_temperature;BME280_humidity;BME280_pressure;Samples;Min_cycle;Max_cycle;Signal;HPM_P1;HPM_P2
2024/01/26 00:00:49;;;;;;;13.75;8.00;;;10.10;99.90;;;10.27;100.00;101669.00;4832597;28;24448;-67
2024/01/26 00:03:12;;;;;;;15.45;8.30;;;10.10;99.90;;;10.24;100.00;101666.59;4835624;28;24461;-67
2024/01/26 00:05:34;;;;;;;13.68;8.02;;;10.10;99.90;;;10.20;100.00;101661.63;4837487;28;24428;-68
2024/01/26 00:07:57;;;;;;;14.52;8.13;;;10.10;99.90;;;10.19;100.00;101657.31;4834487;28;24536;-68
2024/01/26 00:10:19;;;;;;;14.73;7.82;;;10.10;99.90;;;10.16;100.00;101654.88;4836661;28;24458;-67
2024/01/26 00:12:41;;;;;;;14.77;8.00;;;10.10;99.90;;;10.09;100.00;101649.13;4837395;28;24578;-67
2024/01/26 00:15:03;;;;;;;13.98;7.72;;;10.00;99.90;;;10.03;100.00;101646.81;4835217;28;25045;-68
2024/01/26 00:17:25;;;;;;;15.30;7.57;;;9.90;99.90;;;9.99;100.00;101651.38;4835165;28;24539;-68
2024/01/26 00:19:48;;;;;;;13.30;7.50;;;9.90;99.90;;;10.02;100.00;101638.19;4846654;28;24455;-68
2024/01/26 00:22:10;;;;;;;15.20;8.20;;;9.90;99.90;;;10.01;100.00;101639.09;4838463;28;24433;-70
2024/01/26 00:24:32;;;;;;;12.38;6.80;;;9.90;99.90;;;9.98;100.00;101641.03;4836894;28;24448;-68
2024/01/26 00:26:54;;;;;;;14.48;8.20;;;9.90;99.90;;;9.93;100.00;101636.06;4832018;28;24440;-67
2024/01/26 00:29:16;;;;;;;15.15;8.45;;;9.90;99.90;;;9.96;100.00;101635.06;4846405;28;25033;-70
2024/01/26 00:31:38;;;;;;;15.25;7.82;;;9.80;99.90;;;10.00;100.00;101631.34;4837860;28;24550;-68
2024/01/26 00:34:00;;;;;;;13.32;7.32;;;9.80;99.90;;;10.02;100.00;101629.50;4838177;28;24472;-66
2024/01/26 00:36:22;;;;;;;12.47;6.93;;;9.90;99.90;;;10.03;100.00;101637.25;4839137;28;24480;-68
2024/01/26 00:38:44;;;;;;;12.93;7.10;;;9.90;99.90;;;10.04;100.00;101632.88;4838847;28;24428;-67
2024/01/26 00:41:06;;;;;;;13.43;7.22;;;9.90;99.90;;;9.98;100.00;101643.63;4834919;28;24479;-68
2024/01/26 00:43:28;;;;;;;13.68;7.47;;;9.90;99.90;;;9.93;100.00;101638.66;4839080;28;24490;-67
2024/01/26 00:45:50;;;;;;;13.27;7.20;;;9.80;99.90;;;9.97;100.00;101636.72;4830196;28;24479;-68
2024/01/26 00:48:12;;;;;;;12.93;6.82;;;9.80;99.90;;;10.01;100.00;101633.03;4838972;28;25040;-68
2024/01/26 00:50:34;;;;;;;13.80;7.55;;;9.90;99.90;;;10.03;100.00;101626.81;4837094;28;24543;-66
2024/01/26 00:52:57;;;;;;;14.38;7.47;;;9.90;99.90;;;10.03;100.00;101628.56;4824774;28;24995;-70
2024/01/26 00:55:19;;;;;;;12.30;6.70;;;9.90;99.90;;;10.03;100.00;101621.59;4832796;28;25024;-68
2024/01/26 00:57:41;;;;;;;13.40;7.30;;;9.90;99.90;;;10.02;100.00;101632.97;4835155;28;24476;-69
2024/01/26 01:00:07;;;;;;;10.15;6.22;;;9.90;99.90;;;10.06;100.00;101620.59;4842235;28;24521;-67
2024/01/26 01:02:29;;;;;;;12.50;6.43;;;9.90;99.90;;;10.07;100.00;101615.28;4837667;28;25000;-70
2024/01/26 01:04:51;;;;;;;12.70;7.00;;;9.90;99.90;;;10.10;100.00;101620.38;4835300;28;24438;-70
2024/01/26 01:07:13;;;;;;;11.90;7.00;;;9.90;99.90;;;10.12;100.00;101622.91;4837888;28;24498;-69
2024/01/26 01:09:35;;;;;;;11.65;6.65;;;10.00;99.90;;;10.15;100.00;101620.13;4831211;28;24978;-70
2024/01/26 01:11:58;;;;;;;12.77;7.60;;;10.00;99.90;;;10.14;100.00;101618.44;4837593;28;24449;-67
2024/01/26 01:14:21;;;;;;;10.88;6.57;;;10.00;99.90;;;10.19;100.00;101621.66;4834398;28;24503;-67
2024/01/26 01:16:45;;;;;;;9.18;6.30;;;10.00;99.90;;;10.17;100.00;101613.06;4832569;28;24432;-66
2024/01/26 01:19:07;;;;;;;10.43;6.35;;;10.00;99.90;;;10.13;100.00;101617.63;4837690;28;24460;-70
2024/01/26 01:21:30;;;;;;;10.40;6.30;;;10.00;99.90;;;10.12;100.00;101620.28;4830783;28;24448;-66
2024/01/26 01:23:51;;;;;;;10.02;6.60;;;10.00;99.90;;;10.17;100.00;101620.03;4834290;28;25005;-67
2024/01/26 01:26:16;;;;;;;9.93;6.17;;;10.00;99.90;;;10.16;100.00;101620.97;4836946;28;24565;-66
2024/01/26 01:28:38;;;;;;;11.70;6.47;;;10.00;99.90;;;10.22;100.00;101616.28;4837789;28;24524;-65
2024/01/26 01:31:00;;;;;;;10.50;6.50;;;10.10;99.90;;;10.23;100.00;101615.34;4832546;28;24822;-67
2024/01/26 01:33:22;;;;;;;11.82;6.40;;;10.10;99.90;;;10.25;100.00;101603.03;4837122;28;25145;-67
2024/01/26 01:35:44;;;;;;;10.68;6.85;;;10.10;99.90;;;10.28;100.00;101602.03;4834071;28;24789;-67
2024/01/26 01:38:06;;;;;;;10.65;6.55;;;10.10;99.90;;;10.29;100.00;101601.94;4837565;28;24482;-67
2024/01/26 01:40:28;;;;;;;10.82;6.57;;;10.10;99.90;;;10.28;100.00;101605.50;4836489;28;24436;-67
2024/01/26 01:42:50;;;;;;;10.40;6.10;;;10.10;99.90;;;10.23;100.00;101598.84;4837354;28;24460;-66
2024/01/26 01:45:14;;;;;;;12.35;6.80;;;10.10;99.90;;;10.23;100.00;101602.28;4833374;28;24484;-66
2024/01/26 01:47:36;;;;;;;10.60;6.30;;;10.10;99.90;;;10.25;100.00;101605.66;4838273;28;24487;-67
2024/01/26 01:49:58;;;;;;;9.48;5.93;;;10.10;99.90;;;10.25;100.00;101605.66;4832776;28;24456;-66
2024/01/26 01:52:21;;;;;;;11.20;6.45;;;10.10;99.90;;;10.26;100.00;101606.50;4836270;28;24491;-67
2024/01/26 01:54:43;;;;;;;12.48;6.57;;;10.10;99.90;;;10.28;100.00;101608.09;4834610;28;24989;-71
2024/01/26 01:57:05;;;;;;;8.75;5.80;;;10.10;99.90;;;10.31;100.00;101607.91;4825703;28;24425;-65
2024/01/26 01:59:28;;;;;;;12.55;6.82;;;10.10;99.90;;;10.28;100.00;101609.88;4814678;28;24924;-67
2024/01/26 02:01:50;;;;;;;12.83;6.70;;;10.20;99.90;;;10.27;100.00;101598.59;4834885;28;24500;-67
2024/01/26 02:04:12;;;;;;;11.55;6.80;;;10.10;99.90;;;10.30;100.00;101601.03;4836140;28;24986;-67
2024/01/26 02:06:34;;;;;;;10.82;6.53;;;10.20;99.90;;;10.28;100.00;101605.50;4836466;28;25026;-67
2024/01/26 02:08:56;;;;;;;9.90;6.40;;;10.10;99.90;;;10.25;100.00;101602.19;4837233;28;24439;-66
2024/01/26 02:11:18;;;;;;;12.40;6.88;;;10.10;99.90;;;10.25;100.00;101607.41;4833337;28;24456;-68
2024/01/26 02:13:43;;;;;;;12.57;6.82;;;10.10;99.90;;;10.27;100.00;101600.34;4836268;28;24986;-69
2024/01/26 02:16:05;;;;;;;11.90;6.63;;;10.10;99.90;;;10.28;100.00;101589.84;4830054;28;24444;-67
2024/01/26 02:18:28;;;;;;;9.35;6.40;;;10.10;99.90;;;10.30;100.00;101581.94;4836295;28;24435;-69
2024/01/26 02:20:50;;;;;;;10.10;6.13;;;10.10;99.90;;;10.29;100.00;101581.09;4836744;28;24436;-70
2024/01/26 02:23:23;;;;;;;10.65;6.43;;;10.20;99.90;;;10.29;100.00;101575.84;4836989;28;24989;-67
2024/01/26 02:25:45;;;;;;;10.73;6.30;;;10.10;99.90;;;10.26;100.00;101581.28;4837148;28;24432;-66
2024/01/26 02:28:07;;;;;;;8.60;5.97;;;10.20;99.90;;;10.23;100.00;101571.00;4830316;28;24453;-67
2024/01/26 02:30:33;;;;;;;9.98;6.43;;;10.10;99.90;;;10.19;100.00;101574.69;4828192;28;24811;-67
2024/01/26 02:32:55;;;;;;;11.57;6.68;;;10.10;99.90;;;10.22;100.00;101576.31;4836444;28;24460;-67
2024/01/26 02:35:17;;;;;;;10.48;6.45;;;10.10;99.90;;;10.23;100.00;101575.34;4835882;28;24432;-68
2024/01/26 02:37:39;;;;;;;11.27;6.90;;;10.10;99.90;;;10.23;100.00;101571.00;4836324;28;24437;-69
2024/01/26 02:40:01;;;;;;;10.02;6.13;;;10.10;99.90;;;10.20;100.00;101578.97;4835958;28;24554;-67
2024/01/26 02:42:23;;;;;;;11.35;6.28;;;10.10;99.90;;;10.22;100.00;101579.75;4819695;28;24483;-68
2024/01/26 02:44:45;;;;;;;13.23;6.50;;;10.10;99.90;;;10.21;100.00;101580.66;4836170;28;24515;-67
2024/01/26 02:47:07;;;;;;;9.60;6.00;;;10.10;99.90;;;10.27;100.00;101574.25;4819883;28;24436;-68
2024/01/26 02:49:31;;;;;;;12.75;7.10;;;10.10;99.90;;;10.22;100.00;101574.53;4833324;28;25058;-68
2024/01/26 02:51:53;;;;;;;10.67;6.70;;;10.10;99.90;;;10.17;100.00;101571.34;4835368;28;24460;-70
2024/01/26 02:54:15;;;;;;;12.10;6.70;;;10.10;99.90;;;10.13;100.00;101581.09;4831589;28;24424;-68
2024/01/26 02:56:37;;;;;;;11.00;6.10;;;10.10;99.90;;;10.03;100.00;101594.66;4823555;28;24456;-67
2024/01/26 02:58:59;;;;;;;11.50;6.67;;;10.00;99.90;;;10.03;100.00;101584.25;4836042;28;24432;-68
2024/01/26 03:01:21;;;;;;;11.73;6.50;;;9.90;99.90;;;10.02;100.00;101575.59;4829711;28;24448;-67
2024/01/26 03:03:43;;;;;;;11.10;6.80;;;9.90;99.90;;;10.00;100.00;101577.44;4828650;28;24432;-68
2024/01/26 03:06:06;;;;;;;13.98;6.90;;;9.90;99.90;;;10.03;100.00;101571.19;4829870;28;25006;-67
2024/01/26 03:08:28;;;;;;;11.57;6.75;;;9.90;99.90;;;10.06;100.00;101578.88;4834226;28;24436;-68
2024/01/26 03:10:50;;;;;;;13.68;6.60;;;10.00;99.90;;;10.05;100.00;101574.59;4830684;28;24451;-69
2024/01/26 03:13:12;;;;;;;10.80;7.00;;;10.00;99.90;;;10.02;100.00;101578.22;4836618;28;25310;-67
2024/01/26 03:15:35;;;;;;;11.48;6.28;;;9.90;99.90;;;10.09;100.00;101578.72;4834597;28;24460;-68
2024/01/26 03:17:56;;;;;;;10.15;6.43;;;9.90;99.90;;;10.04;100.00;101570.28;4833332;28;24440;-70
2024/01/26 03:20:19;;;;;;;7.47;5.28;;;9.90;99.90;;;10.04;100.00;101578.13;4835320;28;24787;-70
2024/01/26 03:22:43;;;;;;;9.15;5.50;;;9.90;99.90;;;9.98;100.00;101563.66;4831268;28;24562;-69
2024/01/26 03:25:06;;;;;;;9.80;5.70;;;9.90;99.90;;;9.96;100.00;101559.44;4836002;28;24491;-69
2024/01/26 03:27:28;;;;;;;8.35;4.82;;;9.90;99.90;;;9.98;100.00;101555.84;4833318;28;24444;-72
2024/01/26 03:29:49;;;;;;;6.63;4.70;;;9.90;99.90;;;9.96;100.00;101552.47;4836487;28;24523;-67
2024/01/26 03:32:11;;;;;;;5.67;4.00;;;9.90;99.90;;;10.01;100.00;101554.81;4833202;28;24467;-67
2024/01/26 03:34:34;;;;;;;5.45;4.00;;;9.90;99.90;;;9.99;100.00;101556.66;4828223;28;25016;-67
2024/01/26 03:36:56;;;;;;;5.53;3.70;;;9.90;99.90;;;9.97;100.00;101563.72;4832405;28;24425;-68
2024/01/26 03:39:18;;;;;;;4.50;3.60;;;9.90;99.90;;;10.01;100.00;101560.00;4831771;28;25028;-66
2024/01/26 03:41:40;;;;;;;3.78;3.13;;;9.90;99.90;;;9.94;100.00;101564.75;4835326;28;24432;-68
2024/01/26 03:44:03;;;;;;;3.47;3.17;;;9.90;99.90;;;9.92;100.00;101561.34;4834101;28;24495;-69
2024/01/26 03:46:25;;;;;;;4.22;3.50;;;9.80;99.90;;;9.98;100.00;101550.63;4827279;28;24503;-71
2024/01/26 03:48:48;;;;;;;3.07;2.70;;;9.90;99.90;;;10.05;100.00;101554.56;4835020;28;25027;-70
2024/01/26 03:51:11;;;;;;;3.17;2.60;;;9.90;99.90;;;9.98;100.00;101552.38;4835027;28;25031;-68
2024/01/26 03:53:33;;;;;;;3.28;2.80;;;10.00;99.90;;;9.98;100.00;101549.78;4822470;28;24522;-67
2024/01/26 03:55:55;;;;;;;3.10;2.80;;;9.90;99.90;;;10.02;100.00;101553.91;4835698;28;24436;-68
2024/01/26 03:58:17;;;;;;;5.40;2.50;;;10.00;99.90;;;10.01;100.00;101552.19;4831237;28;24449;-66
2024/01/26 04:00:39;;;;;;;2.60;2.40;;;10.00;99.90;;;10.04;100.00;101550.28;4835219;28;24424;-67
2024/01/26 04:03:01;;;;;;;2.65;2.45;;;9.90;99.90;;;9.99;100.00;101551.44;4830858;28;24459;-67
2024/01/26 04:05:23;;;;;;;4.50;2.20;;;9.90;99.90;;;10.04;100.00;101552.03;4832186;28;24429;-69
2024/01/26 04:07:45;;;;;;;3.38;2.70;;;10.00;99.90;;;10.06;100.00;101558.00;4834926;28;24558;-68
2024/01/26 04:10:07;;;;;;;2.60;2.40;;;10.00;99.90;;;10.11;100.00;101556.03;4836226;28;24523;-67
2024/01/26 04:12:29;;;;;;;3.78;3.00;;;10.00;99.90;;;10.11;100.00;101558.66;4834303;28;24457;-69
2024/01/26 04:14:51;;;;;;;2.40;2.20;;;10.00;99.90;;;10.11;100.00;101546.41;4834033;28;24542;-70
2024/01/26 04:17:13;;;;;;;2.33;2.13;;;10.00;99.90;;;10.08;100.00;101556.16;4834239;28;24435;-71
2024/01/26 04:19:35;;;;;;;2.42;2.15;;;10.00;99.90;;;10.10;100.00;101554.31;4824857;28;24542;-67
2024/01/26 04:21:57;;;;;;;2.42;2.22;;;10.00;99.90;;;10.16;100.00;101554.00;4826396;28;24433;-68
2024/01/26 04:24:19;;;;;;;2.70;2.50;;;10.00;99.90;;;10.19;100.00;101558.19;4826129;28;24891;-67
2024/01/26 04:26:41;;;;;;;3.70;2.13;;;10.10;99.90;;;10.19;100.00;101556.44;4806067;28;24495;-67
2024/01/26 04:29:03;;;;;;;3.38;2.40;;;10.10;99.90;;;10.25;100.00;101574.34;4835446;28;24893;-71
2024/01/26 04:31:25;;;;;;;2.53;2.33;;;10.10;99.90;;;10.30;100.00;101567.13;4848426;28;24559;-67
2024/01/26 04:33:48;;;;;;;2.08;1.98;;;10.20;99.90;;;10.34;100.00;101562.56;4835159;28;25297;-67
2024/01/26 04:36:10;;;;;;;2.43;2.23;;;10.20;99.90;;;10.33;100.00;101553.06;4846737;28;24620;-69
2024/01/26 04:38:32;;;;;;;3.03;2.53;;;10.20;99.90;;;10.36;100.00;101558.94;4835905;28;24439;-70
2024/01/26 04:40:54;;;;;;;2.90;2.10;;;10.20;99.90;;;10.37;100.00;101559.81;4851899;28;24478;-69
2024/01/26 04:43:15;;;;;;;2.00;1.90;;;10.20;99.90;;;10.39;100.00;101561.38;4840396;28;24432;-66
2024/01/26 04:45:37;;;;;;;1.67;1.63;;;10.20;99.90;;;10.43;100.00;101565.50;4845482;28;25069;-68
2024/01/26 04:47:59;;;;;;;1.70;1.70;;;10.30;99.90;;;10.43;100.00;101570.72;4842944;28;25026;-65
2024/01/26 04:50:21;;;;;;;1.70;1.60;;;10.30;99.90;;;10.46;100.00;101565.31;4849834;28;25108;-69
2024/01/26 04:52:43;;;;;;;1.80;1.70;;;10.30;99.90;;;10.50;100.00;101568.63;4847438;28;25046;-66
2024/01/26 04:55:06;;;;;;;1.70;1.60;;;10.30;99.90;;;10.50;100.00;101564.22;4835403;28;24452;-65
2024/01/26 04:57:28;;;;;;;1.67;1.58;;;10.40;99.90;;;10.53;100.00;101566.66;4826663;28;24854;-67
2024/01/26 04:59:50;;;;;;;1.58;1.50;;;10.40;99.90;;;10.53;100.00;101550.16;4836379;28;25126;-67
2024/01/26 05:02:12;;;;;;;2.45;1.60;;;10.40;99.90;;;10.53;100.00;101552.78;4847562;28;24427;-69
2024/01/26 05:04:34;;;;;;;1.98;1.70;;;10.40;99.90;;;10.49;100.00;101540.81;4835895;28;24536;-66
2024/01/26 05:06:56;;;;;;;1.60;1.50;;;10.40;99.90;;;10.51;100.00;101549.41;4854851;28;25004;-67
2024/01/26 05:09:18;;;;;;;1.60;1.50;;;10.40;99.90;;;10.50;100.00;101543.34;4847624;28;24945;-66
2024/01/26 05:11:40;;;;;;;1.80;1.70;;;10.40;99.90;;;10.44;100.00;101543.69;4856506;28;24993;-67
2024/01/26 05:14:02;;;;;;;1.95;1.80;;;10.40;99.90;;;10.44;100.00;101542.84;4828134;28;24467;-69
2024/01/26 05:16:24;;;;;;;1.40;1.40;;;10.30;99.90;;;10.49;100.00;101544.28;4840048;28;24444;-71
2024/01/26 05:18:46;;;;;;;1.80;1.70;;;10.30;99.90;;;10.48;100.00;101526.94;4838940;28;24540;-69
2024/01/26 05:21:08;;;;;;;2.08;1.98;;;10.30;99.90;;;10.46;100.00;101534.00;4847209;28;24435;-69
2024/01/26 05:23:30;;;;;;;2.00;1.90;;;10.30;99.90;;;10.48;100.00;101542.59;4842154;28;24453;-68
2024/01/26 05:25:52;;;;;;;2.40;2.20;;;10.30;99.90;;;10.48;100.00;101533.91;4839923;28;24492;-69
2024/01/26 05:28:14;;;;;;;2.10;1.90;;;10.30;99.90;;;10.47;100.00;101538.31;4848713;28;24467;-70
2024/01/26 05:30:36;;;;;;;2.20;2.10;;;10.30;99.90;;;10.50;100.00;101535.50;4851311;28;24451;-69
2024/01/26 05:32:58;;;;;;;2.10;2.00;;;10.30;99.90;;;10.48;100.00;101533.91;4849551;28;24455;-71
2024/01/26 05:35:21;;;;;;;2.50;2.30;;;10.30;99.90;;;10.52;100.00;101538.06;4850041;28;24428;-71
2024/01/26 05:37:43;;;;;;;2.60;2.40;;;10.40;99.90;;;10.48;100.00;101531.31;4850989;28;24881;-67
2024/01/26 05:40:06;;;;;;;2.67;2.47;;;10.40;99.90;;;10.42;100.00;101532.50;4841971;28;25012;-67
2024/01/26 05:42:28;;;;;;;3.33;2.95;;;10.30;99.90;;;10.40;100.00;101541.34;4813796;28;24989;-67
2024/01/26 05:44:50;;;;;;;5.78;2.80;;;10.30;99.90;;;10.37;100.00;101534.53;4833448;28;24490;-67
2024/01/26 05:47:12;;;;;;;3.97;3.50;;;10.30;99.90;;;10.33;100.00;101535.63;4842595;28;24434;-67
2024/01/26 05:49:34;;;;;;;4.00;3.30;;;10.30;99.90;;;10.31;100.00;101532.28;4854612;28;24522;-67
2024/01/26 05:51:56;;;;;;;4.10;3.70;;;10.20;99.90;;;10.36;100.00;101539.84;4853018;28;24447;-72
2024/01/26 05:54:18;;;;;;;5.20;3.92;;;10.30;99.90;;;10.32;100.00;101544.41;4844344;28;24454;-67
2024/01/26 05:56:41;;;;;;;5.20;4.20;;;10.20;99.90;;;10.29;100.00;101549.78;4825947;28;24803;-66
2024/01/26 05:59:03;;;;;;;4.20;3.80;;;10.20;99.90;;;10.30;100.00;101542.81;4838137;28;24989;-70
2024/01/26 06:01:25;;;;;;;5.55;4.10;;;10.20;99.90;;;10.29;100.00;101547.16;4836106;28;24539;-67
2024/01/26 06:03:46;;;;;;;5.00;4.30;;;10.20;99.90;;;10.29;100.00;101552.38;4846307;28;25191;-69
2024/01/26 06:06:08;;;;;;;6.25;4.20;;;10.20;99.90;;;10.32;100.00;101549.63;4855964;28;24490;-67
2024/01/26 06:08:30;;;;;;;6.07;4.40;;;10.20;99.90;;;10.33;100.00;101551.28;4849391;28;24431;-66
2024/01/26 06:10:52;;;;;;;5.22;3.90;;;10.20;99.90;;;10.31;100.00;101549.72;4829664;28;24439;-66
2024/01/26 06:13:14;;;;;;;5.43;4.27;;;10.20;99.90;;;10.33;100.00;101548.66;4844533;28;24454;-67
2024/01/26 06:15:36;;;;;;;5.80;3.80;;;10.20;99.90;;;10.34;100.00;101542.53;4844665;28;24420;-67
2024/01/26 06:17:58;;;;;;;5.55;3.85;;;10.20;99.90;;;10.35;100.00;101543.38;4839224;28;25204;-67
2024/01/26 06:20:20;;;;;;;4.55;3.80;;;10.20;99.90;;;10.32;100.00;101540.94;4842981;28;24513;-68
2024/01/26 06:22:43;;;;;;;5.70;4.30;;;10.20;99.90;;;10.31;100.00;101536.66;4844733;28;24490;-68
2024/01/26 06:25:05;;;;;;;5.10;3.60;;;10.20;99.90;;;10.31;100.00;101536.66;4838626;28;25202;-66
2024/01/26 06:27:27;;;;;;;3.65;3.30;;;10.20;99.90;;;10.30;100.00;101525.38;4843083;28;24428;-67
2024/01/26 06:29:49;;;;;;;4.00;3.60;;;10.20;99.90;;;10.31;100.00;101528.84;4834707;28;24463;-67
2024/01/26 06:32:11;;;;;;;4.78;3.70;;;10.20;99.90;;;10.25;100.00;101537.84;4847084;28;24539;-67
2024/01/26 06:34:37;;;;;;;3.80;3.40;;;10.20;99.90;;;10.28;100.00;101524.63;4836065;28;24511;-70
2024/01/26 06:36:59;;;;;;;3.90;3.60;;;10.10;99.90;;;10.32;100.00;101533.13;4842461;28;24854;-69
2024/01/26 06:39:21;;;;;;;3.90;3.60;;;10.20;99.90;;;10.26;100.00;101539.53;4844572;28;24428;-71
2024/01/26 06:41:44;;;;;;;4.15;3.30;;;10.20;99.90;;;10.29;100.00;101528.91;4839566;28;24465;-70
2024/01/26 06:44:06;;;;;;;3.50;3.20;;;10.20;99.90;;;10.30;100.00;101535.81;4847670;28;24424;-68
2024/01/26 06:46:28;;;;;;;3.40;3.10;;;10.20;99.90;;;10.30;100.00;101528.00;4847583;28;24430;-67
2024/01/26 06:48:51;;;;;;;3.58;3.28;;;10.20;99.90;;;10.34;100.00;101533.88;4839805;28;25049;-67
2024/01/26 06:51:13;;;;;;;3.60;3.25;;;10.20;99.90;;;10.32;100.00;101535.72;4843545;28;20783;-72
2024/01/26 06:53:35;;;;;;;4.20;3.20;;;10.20;99.90;;;10.37;100.00;101542.34;4829790;28;25017;-67
2024/01/26 06:55:57;;;;;;;3.70;2.80;;;10.20;99.90;;;10.43;100.00;101543.78;4831279;28;24452;-67
2024/01/26 06:58:19;;;;;;;3.22;2.92;;;10.30;99.90;;;10.38;100.00;101538.84;4850396;28;24530;-67
2024/01/26 07:00:41;;;;;;;3.00;2.80;;;10.30;99.90;;;10.42;100.00;101548.16;4834525;28;24436;-68
2024/01/26 07:03:06;;;;;;;3.20;2.90;;;10.30;99.90;;;10.43;100.00;101552.47;4833693;28;24448;-68
2024/01/26 07:05:28;;;;;;;2.90;2.70;;;10.30;99.90;;;10.43;100.00;101559.44;4832045;28;24519;-67
2024/01/26 07:07:50;;;;;;;3.67;2.60;;;10.30;99.90;;;10.47;100.00;101561.81;4848092;28;24458;-72
2024/01/26 07:10:12;;;;;;;3.20;3.00;;;10.30;99.90;;;10.48;100.00;101566.06;4845934;28;25536;-70
2024/01/26 07:12:34;;;;;;;2.63;2.42;;;10.30;99.90;;;10.45;100.00;101558.44;4840529;28;24957;-70
2024/01/26 07:14:56;;;;;;;2.10;2.00;;;10.40;99.90;;;10.44;100.00;101556.75;4845268;28;24439;-67
2024/01/26 07:17:18;;;;;;;1.80;1.70;;;10.30;99.90;;;10.47;100.00;101534.84;4842431;28;24498;-67
2024/01/26 07:19:40;;;;;;;2.30;2.10;;;10.40;99.90;;;10.48;100.00;101532.16;4849983;28;24428;-69
2024/01/26 07:22:02;;;;;;;1.30;1.20;;;10.40;99.90;;;10.50;100.00;101526.88;4840243;28;24883;-68
2024/01/26 07:24:24;;;;;;;2.70;2.40;;;10.40;99.90;;;10.45;100.00;101536.72;4833853;28;24539;-69
2024/01/26 07:26:47;;;;;;;3.90;2.60;;;10.40;99.90;;;10.48;100.00;101524.31;4847075;28;24424;-68
2024/01/26 07:29:09;;;;;;;2.63;2.42;;;10.40;99.90;;;10.43;100.00;101530.75;4841474;28;24447;-66
2024/01/26 07:31:31;;;;;;;2.35;2.15;;;10.30;99.90;;;10.43;100.00;101536.81;4836632;28;24452;-65
2024/01/26 07:33:53;;;;;;;3.08;2.20;;;10.30;99.90;;;10.38;100.00;101538.84;4844839;28;24525;-67
2024/01/26 07:36:16;;;;;;;2.50;2.30;;;10.30;99.90;;;10.34;100.00;101534.72;4837861;28;24428;-68
2024/01/26 07:38:38;;;;;;;3.13;2.47;;;10.30;99.90;;;10.35;100.00;101525.94;4823125;28;24440;-67
2024/01/26 07:41:00;;;;;;;2.78;2.40;;;10.30;99.90;;;10.36;100.00;101535.47;4844623;28;24463;-67
2024/01/26 07:43:22;;;;;;;2.63;2.42;;;10.20;99.90;;;10.39;100.00;101529.25;4847829;28;24439;-66
2024/01/26 07:45:43;;;;;;;1.98;1.67;;;10.20;99.90;;;10.40;100.00;101521.31;4843594;28;24600;-68
2024/01/26 07:48:06;;;;;;;2.67;2.47;;;10.30;99.90;;;10.42;100.00;101516.84;4840809;28;24552;-67
2024/01/26 07:50:28;;;;;;;3.05;2.80;;;10.30;99.90;;;10.43;100.00;101512.47;4837347;28;24530;-67
2024/01/26 07:52:50;;;;;;;2.50;2.30;;;10.30;99.90;;;10.48;100.00;101500.84;4836388;28;25833;-67
2024/01/26 07:55:12;;;;;;;2.70;2.50;;;10.30;99.90;;;10.42;100.00;101488.16;4842260;28;24459;-67
2024/01/26 07:57:34;;;;;;;2.20;1.98;;;10.30;99.90;;;10.41;100.00;101486.50;4832238;28;24539;-71
2024/01/26 07:59:56;;;;;;;2.65;2.13;;;10.30;99.90;;;10.43;100.00;101484.63;4842920;28;24525;-67
2024/01/26 08:02:18;;;;;;;2.50;2.30;;;10.30;99.90;;;10.48;100.00;101469.53;4849242;28;24798;-67
2024/01/26 08:04:40;;;;;;;2.53;2.22;;;10.30;99.90;;;10.50;100.00;101466.84;4845786;28;24458;-70
2024/01/26 08:07:02;;;;;;;2.50;2.30;;;10.40;99.90;;;10.59;100.00;101469.75;4855241;28;20905;-67
2024/01/26 08:09:24;;;;;;;2.50;2.30;;;10.50;99.90;;;10.59;100.00;101480.19;4841130;28;24920;-70
2024/01/26 08:11:47;;;;;;;2.93;2.73;;;10.50;99.90;;;10.69;100.00;101501.38;4841306;28;24484;-69
2024/01/26 08:14:09;;;;;;;3.10;2.60;;;10.50;99.90;;;10.78;100.00;101506.03;4833357;28;24484;-69
2024/01/26 08:16:32;;;;;;;3.40;2.60;;;10.60;99.90;;;10.76;100.00;101506.13;4843843;28;24468;-67
2024/01/26 08:18:54;;;;;;;3.00;2.70;;;10.60;99.90;;;10.78;100.00;101504.28;4830671;28;24455;-68
2024/01/26 08:21:16;;;;;;;3.10;2.70;;;10.60;99.90;;;10.78;100.00;101499.06;4843602;28;24451;-69
2024/01/26 08:23:38;;;;;;;2.30;2.10;;;10.60;99.90;;;10.69;100.00;101494.38;4850560;28;25005;-68
2024/01/26 08:26:01;;;;;;;2.67;2.47;;;10.60;99.90;;;10.79;100.00;101481.63;4849093;28;24428;-69
2024/01/26 08:28:23;;;;;;;2.65;2.45;;;10.60;99.90;;;10.82;100.00;101476.22;4843011;28;25001;-70
2024/01/26 08:30:45;;;;;;;2.42;2.30;;;10.70;99.90;;;10.83;100.00;101480.50;4845708;28;24450;-70
2024/01/26 08:33:07;;;;;;;3.60;3.03;;;10.70;99.90;;;10.81;100.00;101474.53;4855966;28;24521;-70
2024/01/26 08:35:29;;;;;;;3.20;2.65;;;10.70;99.90;;;10.80;100.00;101486.75;4846523;28;25033;-70
2024/01/26 08:37:51;;;;;;;3.00;2.70;;;10.70;99.90;;;10.83;100.00;101494.41;4834661;28;24439;-68
2024/01/26 08:40:14;;;;;;;3.15;2.65;;;10.70;99.90;;;10.85;100.00;101489.94;4855049;28;24896;-68
2024/01/26 08:42:36;;;;;;;3.47;2.78;;;10.70;99.90;;;10.78;100.00;101486.00;4845525;28;24496;-67
2024/01/26 08:44:58;;;;;;;4.30;2.50;;;10.70;99.90;;;10.82;100.00;101477.06;4844863;28;24459;-68
2024/01/26 08:47:20;;;;;;;3.38;2.30;;;10.70;99.90;;;10.86;100.00;101473.31;4839192;28;24799;-67
2024/01/26 08:49:42;;;;;;;2.45;2.25;;;10.70;99.90;;;10.87;100.00;101461.97;4851863;28;24549;-67
2024/01/26 08:52:05;;;;;;;2.45;2.30;;;10.70;99.90;;;10.84;100.00;101464.75;4845398;28;24460;-70
2024/01/26 08:54:27;;;;;;;2.20;2.10;;;10.70;99.90;;;10.91;100.00;101460.00;4852579;28;24560;-68
2024/01/26 08:56:49;;;;;;;1.95;1.77;;;10.80;99.90;;;10.94;100.00;101454.59;4833886;28;24498;-69
2024/01/26 08:59:11;;;;;;;1.88;1.77;;;10.80;99.90;;;10.87;100.00;101453.28;4838865;28;24977;-68
2024/01/26 09:01:35;;;;;;;2.67;2.00;;;10.80;99.90;;;10.93;100.00;101445.09;4839915;28;24535;-68
2024/01/26 09:03:56;;;;;;;1.80;1.70;;;10.80;99.90;;;10.96;100.00;101438.84;4847347;28;24515;-69
2024/01/26 09:06:19;;;;;;;1.67;1.58;;;10.80;99.90;;;10.96;100.00;101437.06;4850655;28;24822;-68
2024/01/26 09:08:41;;;;;;;2.20;1.73;;;10.80;99.90;;;10.96;100.00;101446.69;4853502;28;25089;-68
2024/01/26 09:11:04;;;;;;;1.90;1.80;;;10.90;99.90;;;11.00;100.00;101430.72;4846043;28;24440;-68
2024/01/26 09:13:26;;;;;;;1.38;1.10;;;10.90;99.90;;;10.98;100.00;101429.13;4841302;28;24488;-67
2024/01/26 09:15:48;;;;;;;1.95;1.40;;;10.90;99.90;;;11.02;100.00;101430.63;4854112;28;24434;-68
2024/01/26 09:18:10;;;;;;;1.13;1.10;;;10.90;99.90;;;11.04;100.00;101440.06;4845792;28;24535;-69
2024/01/26 09:20:32;;;;;;;2.35;1.48;;;10.90;99.90;;;11.13;100.00;101425.59;4843255;28;24845;-71
2024/01/26 09:22:54;;;;;;;1.20;1.20;;;11.00;99.90;;;11.17;100.00;101417.47;4838179;28;24997;-68
2024/01/26 09:25:17;;;;;;;1.30;1.20;;;11.00;99.90;;;11.23;100.00;101411.00;4856463;28;24434;-67
2024/01/26 09:27:39;;;;;;;1.30;1.20;;;11.10;99.90;;;11.32;98.69;101406.06;4838851;28;24448;-69
2024/01/26 09:30:01;;;;;;;1.33;1.27;;;11.10;99.90;;;11.34;98.98;101403.34;4843141;28;24471;-68
2024/01/26 09:32:23;;;;;;;1.25;1.15;;;11.20;99.90;;;11.31;99.29;101391.31;4834949;28;24444;-67
2024/01/26 09:34:45;;;;;;;2.20;0.90;;;11.20;99.90;;;11.28;99.79;101388.91;4847072;28;24478;-68
2024/01/26 09:37:07;;;;;;;1.20;1.10;;;11.20;99.90;;;11.32;99.30;101381.72;4830549;28;24897;-68
2024/01/26 09:39:29;;;;;;;1.00;1.00;;;11.20;99.90;;;11.34;99.16;101383.31;4839614;28;24995;-67
2024/01/26 09:41:51;;;;;;;1.50;1.40;;;11.20;99.90;;;11.44;98.29;101394.84;4832765;28;24432;-69
2024/01/26 09:44:14;;;;;;;1.30;1.30;;;11.30;99.90;;;11.43;99.05;101400.16;4835521;28;24447;-68